createdAt,value
2023-02-18T00:02:34.657Z,6.84
2023-02-18T00:07:38.036Z,6.75
2023-02-18T00:12:42.036Z,6.68
2023-02-18T00:17:43.974Z,6.59
2023-02-18T00:22:45.919Z,6.57
2023-02-18T00:27:49.542Z,6.56
2023-02-18T00:32:52.307Z,6.40
2023-02-18T00:37:54.742Z,6.41
2023-02-18T00:42:58.030Z,6.39
2023-02-18T00:47:59.822Z,6.20
2023-02-18T00:53:02.039Z,6.21
2023-02-18T00:58:05.813Z,6.25
2023-02-18T01:03:08.737Z,6.15
2023-02-18T01:08:11.525Z,6.17
2023-02-18T01:13:16.469Z,6.07
2023-02-18T01:18:18.794Z,6.15
2023-02-18T01:23:22.330Z,6.15
2023-02-18T01:28:26.510Z,6.13
2023-02-18T01:33:28.617Z,6.12
2023-02-18T01:38:31.000Z,6.14
2023-02-18T01:43:34.633Z,6.19
2023-02-18T01:48:40.014Z,6.22
2023-02-18T01:53:50.010Z,6.08
2023-02-18T01:58:57.112Z,6.12
2023-02-18T02:03:59.414Z,6.07
2023-02-18T02:09:06.941Z,5.97
2023-02-18T02:14:22.152Z,6.08
2023-02-18T02:19:59.447Z,6.05
2023-02-18T02:25:19.968Z,5.97
2023-02-18T02:30:54.569Z,5.97
2023-02-18T02:36:03.719Z,6.06
2023-02-18T02:41:18.605Z,6.06
2023-02-18T02:46:27.442Z,5.98
2023-02-18T02:51:35.954Z,6.02
2023-02-18T02:56:38.032Z,5.99
2023-02-18T03:01:56.671Z,5.90
2023-02-18T03:07:14.804Z,5.80
2023-02-18T03:12:23.354Z,5.86
2023-02-18T03:17:29.739Z,5.77
2023-02-18T03:22:38.637Z,5.66
2023-02-18T03:27:46.422Z,5.60
2023-02-18T03:32:51.125Z,5.56
2023-02-18T03:38:00.980Z,5.65
2023-02-18T03:43:03.075Z,5.57
2023-02-18T03:48:06.391Z,5.58
2023-02-18T03:53:10.340Z,5.56
2023-02-18T03:58:12.812Z,5.53
2023-02-18T04:03:15.183Z,5.60
2023-02-18T04:08:18.885Z,5.52
2023-02-18T04:13:21.461Z,5.58
2023-02-18T04:18:24.124Z,5.54
2023-02-18T04:23:27.903Z,5.71
2023-02-18T04:28:30.103Z,5.71
2023-02-18T04:33:32.293Z,5.95
2023-02-18T04:38:36.160Z,5.96
2023-02-18T04:43:38.293Z,6.03
2023-02-18T04:48:40.720Z,6.20
2023-02-18T04:53:43.843Z,6.25
2023-02-18T04:58:46.024Z,6.35
2023-02-18T05:03:48.459Z,6.41
2023-02-18T05:08:51.624Z,6.39
2023-02-18T05:13:53.597Z,6.40
2023-02-18T05:18:55.626Z,6.41
2023-02-18T05:23:59.043Z,6.40
2023-02-18T05:29:01.272Z,6.43
2023-02-18T05:34:02.973Z,6.42
2023-02-18T05:39:06.460Z,6.44
2023-02-18T05:44:09.009Z,6.47
2023-02-18T05:49:11.124Z,6.42
2023-02-18T05:54:14.597Z,6.38
2023-02-18T05:59:16.895Z,6.36
2023-02-18T06:04:19.361Z,6.32
2023-02-18T06:09:22.899Z,6.31
2023-02-18T06:14:25.303Z,6.31
2023-02-18T06:19:27.039Z,6.41
2023-02-18T06:24:30.933Z,6.50
2023-02-18T06:29:33.437Z,6.51
2023-02-18T06:34:35.244Z,6.54
2023-02-18T06:39:39.212Z,6.51
2023-02-18T06:44:41.194Z,6.43
2023-02-18T06:49:43.380Z,6.40
2023-02-18T06:54:47.274Z,6.26
2023-02-18T06:59:49.402Z,6.26
2023-02-18T07:04:51.442Z,6.25
2023-02-18T07:09:54.865Z,6.26
2023-02-18T07:14:56.832Z,6.32
2023-02-18T07:19:58.914Z,6.26
2023-02-18T07:25:03.096Z,6.30
2023-02-18T07:30:06.568Z,6.18
2023-02-18T07:35:10.495Z,6.18
2023-02-18T07:40:16.085Z,6.29
2023-02-18T07:45:17.904Z,6.33
2023-02-18T07:50:19.726Z,6.37
2023-02-18T07:55:22.895Z,6.30
2023-02-18T08:00:27.065Z,6.36
2023-02-18T08:05:29.196Z,6.30
2023-02-18T08:10:32.387Z,6.43
2023-02-18T08:15:34.145Z,6.40
2023-02-18T08:20:36.773Z,6.49
2023-02-18T08:25:40.703Z,6.37
2023-02-18T08:30:45.077Z,6.40
2023-02-18T08:35:48.033Z,6.47
2023-02-18T08:41:00.979Z,6.48
2023-02-18T08:46:03.985Z,6.46
2023-02-18T08:51:17.784Z,6.39
2023-02-18T08:56:21.627Z,6.35
2023-02-18T09:01:24.020Z,6.36
2023-02-18T09:06:26.509Z,6.31
2023-02-18T09:11:30.817Z,6.37
2023-02-18T09:16:33.369Z,6.37
2023-02-18T09:21:35.317Z,6.35
2023-02-18T09:26:38.980Z,6.37
2023-02-18T09:31:41.151Z,6.45
2023-02-18T09:36:42.923Z,6.41
2023-02-18T09:41:50.392Z,6.34
2023-02-18T09:46:55.596Z,6.48
2023-02-18T09:52:07.433Z,6.56
2023-02-18T09:57:23.742Z,6.58
2023-02-18T10:02:26.142Z,6.51
2023-02-18T10:07:31.779Z,6.50
2023-02-18T10:12:35.638Z,6.50
2023-02-18T10:17:38.889Z,6.43
2023-02-18T10:22:41.446Z,6.46
2023-02-18T10:27:45.848Z,6.50
2023-02-18T10:32:48.377Z,6.47
2023-02-18T10:38:01.377Z,6.61
2023-02-18T10:43:16.672Z,6.60
2023-02-18T10:48:55.475Z,6.55
2023-02-18T10:53:57.653Z,6.58
2023-02-18T10:59:09.659Z,6.60
2023-02-18T11:04:15.138Z,6.72
2023-02-18T11:09:30.616Z,6.88
2023-02-18T11:14:43.229Z,6.92
2023-02-18T11:19:53.132Z,6.99
2023-02-18T11:24:56.412Z,6.94
2023-02-18T11:30:05.597Z,6.97
2023-02-18T11:35:17.357Z,7.07
2023-02-18T11:40:25.054Z,7.26
2023-02-18T11:45:30.603Z,7.49
2023-02-18T11:50:34.434Z,7.64
2023-02-18T11:55:36.505Z,7.75
2023-02-18T12:00:42.889Z,7.84
2023-02-18T12:05:45.893Z,7.97
2023-02-18T12:10:50.488Z,8.20
2023-02-18T12:16:01.890Z,8.52
2023-02-18T12:21:16.637Z,8.92
2023-02-18T12:26:26.460Z,9.22
2023-02-18T12:31:45.562Z,9.46
2023-02-18T12:36:58.857Z,9.65
2023-02-18T12:42:14.410Z,9.80
2023-02-18T12:47:37.943Z,9.96
2023-02-18T12:52:50.353Z,10.11
2023-02-18T12:58:06.210Z,10.24
2023-02-18T13:03:34.766Z,10.35
2023-02-18T13:08:50.048Z,10.36
2023-02-18T13:14:00.978Z,10.43
2023-02-18T13:19:15.358Z,10.57
2023-02-18T13:24:26.604Z,10.59
2023-02-18T13:29:35.599Z,10.61
2023-02-18T13:34:47.385Z,10.59
2023-02-18T13:39:53.320Z,10.44
2023-02-18T13:45:28.363Z,10.35
2023-02-18T13:50:41.040Z,10.32
2023-02-18T13:55:53.258Z,10.42
2023-02-18T14:01:02.266Z,10.44
2023-02-18T14:06:20.646Z,10.42
2023-02-18T14:11:46.963Z,10.37
2023-02-18T14:17:13.441Z,10.18
2023-02-18T14:22:28.905Z,10.06
2023-02-18T14:27:30.957Z,10.09
2023-02-18T14:32:33.600Z,10.21
2023-02-18T14:38:01.991Z,10.25
2023-02-18T14:43:13.706Z,10.22
2023-02-18T14:48:33.635Z,10.23
2023-02-18T14:53:42.257Z,10.23
2023-02-18T14:58:47.526Z,10.30
2023-02-18T15:03:51.758Z,10.55
2023-02-18T15:08:54.932Z,10.47
2023-02-18T15:13:57.066Z,10.37
2023-02-18T15:19:03.079Z,10.34
2023-02-18T15:24:13.762Z,10.22
2023-02-18T15:29:19.494Z,10.11
2023-02-18T15:34:37.071Z,10.13
2023-02-18T15:39:41.815Z,10.13
2023-02-18T15:44:47.771Z,10.22
2023-02-18T15:49:53.453Z,10.21
2023-02-18T15:55:00.604Z,10.23
2023-02-18T16:00:07.170Z,10.18
2023-02-18T16:05:14.014Z,10.23
2023-02-18T16:10:21.580Z,10.22
2023-02-18T16:15:27.083Z,10.27
2023-02-18T16:20:32.479Z,10.34
2023-02-18T16:25:45.355Z,10.23
2023-02-18T16:30:47.430Z,10.22
2023-02-18T16:35:51.004Z,10.11
2023-02-18T16:40:54.647Z,9.91
2023-02-18T16:45:58.903Z,9.86
2023-02-18T16:51:04.750Z,9.88
2023-02-18T16:56:14.527Z,10.01
2023-02-18T17:01:23.499Z,10.02
2023-02-18T17:06:25.832Z,9.92
2023-02-18T17:11:32.450Z,9.88
2023-02-18T17:16:34.227Z,10.03
2023-02-18T17:21:36.240Z,10.03
2023-02-18T17:26:40.091Z,9.98
2023-02-18T17:31:44.834Z,10.04
2023-02-18T17:36:47.199Z,10.03
2023-02-18T17:41:52.049Z,9.97
2023-02-18T17:46:53.769Z,9.84
2023-02-18T17:51:58.060Z,8.72
2023-02-18T17:57:01.850Z,8.31
2023-02-18T18:02:04.067Z,8.08
2023-02-18T18:07:05.831Z,7.87
2023-02-18T18:12:14.653Z,7.84
2023-02-18T18:17:16.513Z,7.71
2023-02-18T18:22:18.489Z,7.72
2023-02-18T18:27:21.645Z,7.71
2023-02-18T18:32:23.424Z,7.78
2023-02-18T18:37:25.116Z,7.64
2023-02-18T18:42:28.204Z,7.72
2023-02-18T18:47:30.166Z,7.70
2023-02-18T18:52:31.982Z,7.52
2023-02-18T18:57:35.593Z,7.49
2023-02-18T19:02:37.406Z,7.35
2023-02-18T19:07:39.190Z,7.23
2023-02-18T19:12:42.489Z,7.20
2023-02-18T19:17:49.900Z,7.13
2023-02-18T19:22:52.494Z,7.09
2023-02-18T19:27:56.289Z,6.99
2023-02-18T19:33:00.833Z,7.03
2023-02-18T19:38:03.214Z,6.83
2023-02-18T19:43:07.331Z,6.67
2023-02-18T19:48:10.425Z,6.60
2023-02-18T19:53:12.520Z,6.57
2023-02-18T19:58:16.188Z,6.53
2023-02-18T20:03:18.108Z,6.53
2023-02-18T20:08:20.058Z,6.48
2023-02-18T20:13:24.293Z,6.50
2023-02-18T20:18:26.358Z,6.46
2023-02-18T20:23:28.765Z,6.57
2023-02-18T20:28:31.989Z,6.64
2023-02-18T20:33:34.167Z,6.69
2023-02-18T20:38:37.031Z,6.69
2023-02-18T20:43:41.035Z,6.68
2023-02-18T20:48:43.934Z,6.61
2023-02-18T20:53:47.291Z,6.65
2023-02-18T20:58:50.871Z,6.54
2023-02-18T21:03:53.088Z,6.55
2023-02-18T21:08:55.027Z,6.47
2023-02-18T21:13:59.027Z,6.45
2023-02-18T21:19:00.833Z,6.40
2023-02-18T21:24:03.654Z,6.35
2023-02-18T21:29:08.668Z,6.46
2023-02-18T21:34:12.899Z,6.44
2023-02-18T21:39:14.876Z,6.40
2023-02-18T21:44:18.394Z,6.26
2023-02-18T21:49:20.478Z,6.14
2023-02-18T21:54:25.436Z,6.18
2023-02-18T21:59:30.490Z,6.17
2023-02-18T22:04:35.159Z,6.06
2023-02-18T22:09:38.038Z,6.06
2023-02-18T22:14:42.621Z,6.01
2023-02-18T22:19:44.840Z,6.00
2023-02-18T22:24:47.069Z,5.96
2023-02-18T22:29:50.529Z,5.93
2023-02-18T22:34:53.934Z,5.83
2023-02-18T22:39:56.404Z,5.88
2023-02-18T22:45:00.006Z,5.81
2023-02-18T22:50:02.195Z,5.79
2023-02-18T22:55:04.296Z,5.77
2023-02-18T23:00:09.126Z,5.69
2023-02-18T23:05:11.269Z,5.68
2023-02-18T23:10:12.996Z,5.73
2023-02-18T23:15:16.565Z,5.61
2023-02-18T23:20:19.640Z,5.60
2023-02-18T23:25:22.014Z,5.59
2023-02-18T23:30:25.294Z,5.62
2023-02-18T23:35:27.293Z,5.66
2023-02-18T23:40:29.416Z,5.55
2023-02-18T23:45:32.868Z,5.66
2023-02-18T23:50:34.916Z,5.57
2023-02-18T23:55:37.059Z,5.55
